createdAt,value
2022-12-23T00:00:09.824Z,25.93
2022-12-23T00:00:39.933Z,25.92
2022-12-23T00:01:09.955Z,25.92
2022-12-23T00:01:40.161Z,25.89
2022-12-23T00:02:10.170Z,25.92
2022-12-23T00:02:40.263Z,25.91
2022-12-23T00:03:10.288Z,25.91
2022-12-23T00:03:40.485Z,25.91
2022-12-23T00:04:10.396Z,25.91
2022-12-23T00:04:40.409Z,25.91
2022-12-23T00:05:10.414Z,25.95
2022-12-23T00:05:40.400Z,25.91
2022-12-23T00:06:10.399Z,25.93
2022-12-23T00:06:40.391Z,25.91
2022-12-23T00:07:10.511Z,25.93
2022-12-23T00:07:40.510Z,25.92
2022-12-23T00:08:10.506Z,25.92
2022-12-23T00:08:40.615Z,25.89
2022-12-23T00:09:10.759Z,25.93
2022-12-23T00:09:40.742Z,25.91
2022-12-23T00:10:10.863Z,25.91
2022-12-23T00:10:40.984Z,25.89
2022-12-23T00:11:11.101Z,25.92
2022-12-23T00:11:41.087Z,25.92
2022-12-23T00:12:11.209Z,25.88
2022-12-23T00:12:41.321Z,25.91
2022-12-23T00:13:11.445Z,25.92
2022-12-23T00:13:41.457Z,25.91
2022-12-23T00:14:18.201Z,25.92
2022-12-23T00:14:41.573Z,25.92
2022-12-23T00:15:11.569Z,25.89
2022-12-23T00:15:41.684Z,25.91
2022-12-23T00:16:11.885Z,25.91
2022-12-23T00:16:41.970Z,25.89
2022-12-23T00:17:22.024Z,25.91
2022-12-23T00:17:41.959Z,25.91
2022-12-23T00:18:11.962Z,25.89
2022-12-23T00:18:41.971Z,25.89
2022-12-23T00:19:11.982Z,25.91
2022-12-23T00:19:41.980Z,25.89
2022-12-23T00:20:11.986Z,25.92
2022-12-23T00:20:42.101Z,25.89
2022-12-23T00:21:12.217Z,25.92
2022-12-23T00:21:42.215Z,25.89
2022-12-23T00:22:12.215Z,25.89
2022-12-23T00:22:42.198Z,25.91
2022-12-23T00:23:12.207Z,25.89
2022-12-23T00:23:42.207Z,25.88
2022-12-23T00:24:12.306Z,25.89
2022-12-23T00:24:42.300Z,25.91
2022-12-23T00:25:12.328Z,25.88
2022-12-23T00:25:42.561Z,25.91
2022-12-23T00:26:12.517Z,25.92
2022-12-23T00:26:42.510Z,25.89
2022-12-23T00:27:12.642Z,25.91
2022-12-23T00:27:42.631Z,25.91
2022-12-23T00:28:12.632Z,25.91
2022-12-23T00:28:42.626Z,25.89
2022-12-23T00:29:12.794Z,25.89
2022-12-23T00:29:42.817Z,25.88
2022-12-23T00:30:12.832Z,25.91
2022-12-23T00:30:42.913Z,25.89
2022-12-23T00:31:12.995Z,25.87
2022-12-23T00:31:43.054Z,25.88
2022-12-23T00:32:13.103Z,25.88
2022-12-23T00:32:42.966Z,25.89
2022-12-23T00:33:12.979Z,25.88
2022-12-23T00:33:42.969Z,25.89
2022-12-23T00:34:13.101Z,25.88
2022-12-23T00:34:43.089Z,25.85
2022-12-23T00:35:13.207Z,25.89
2022-12-23T00:35:43.366Z,25.88
2022-12-23T00:36:13.463Z,25.88
2022-12-23T00:36:43.448Z,25.88
2022-12-23T00:37:13.463Z,25.88
2022-12-23T00:37:43.580Z,25.89
2022-12-23T00:38:13.721Z,25.91
2022-12-23T00:38:43.714Z,25.88
2022-12-23T00:39:13.855Z,25.88
2022-12-23T00:39:43.827Z,25.88
2022-12-23T00:40:13.820Z,25.87
2022-12-23T00:40:43.936Z,25.87
2022-12-23T00:41:14.061Z,25.87
2022-12-23T00:41:44.172Z,25.87
2022-12-23T00:42:14.317Z,25.87
2022-12-23T00:42:44.293Z,25.88
2022-12-23T00:43:14.457Z,25.87
2022-12-23T00:43:44.447Z,25.88
2022-12-23T00:44:14.556Z,25.85
2022-12-23T00:44:44.623Z,25.85
2022-12-23T00:45:14.707Z,25.87
2022-12-23T00:45:44.812Z,25.87
2022-12-23T00:46:14.986Z,25.87
2022-12-23T00:46:44.970Z,25.87
2022-12-23T00:47:15.030Z,25.88
2022-12-23T00:47:45.134Z,25.87
2022-12-23T00:48:15.246Z,25.87
2022-12-23T00:48:45.316Z,25.87
2022-12-23T00:49:15.418Z,25.88
2022-12-23T00:49:45.473Z,25.87
2022-12-23T00:50:15.556Z,25.85
2022-12-23T00:50:45.634Z,25.85
2022-12-23T00:51:15.716Z,25.85
2022-12-23T00:51:45.808Z,25.87
2022-12-23T00:52:15.992Z,25.87
2022-12-23T00:52:45.939Z,25.88
2022-12-23T00:53:16.036Z,25.85
2022-12-23T00:53:46.124Z,25.85
2022-12-23T00:54:16.112Z,25.88
2022-12-23T00:54:46.230Z,25.85
2022-12-23T00:55:16.233Z,25.87
2022-12-23T00:55:46.344Z,25.87
2022-12-23T00:56:16.473Z,25.85
2022-12-23T00:56:46.461Z,25.85
2022-12-23T00:57:16.579Z,25.85
2022-12-23T00:57:46.577Z,25.87
2022-12-23T00:58:16.718Z,25.88
2022-12-23T00:58:46.710Z,25.88
2022-12-23T00:59:16.713Z,25.87
2022-12-23T00:59:46.711Z,25.84
2022-12-23T01:00:16.820Z,25.87
2022-12-23T01:00:46.852Z,25.82
2022-12-23T01:01:16.956Z,25.85
2022-12-23T01:01:46.968Z,25.85
2022-12-23T01:02:17.058Z,25.87
2022-12-23T01:02:47.119Z,25.84
2022-12-23T01:03:17.230Z,25.87
2022-12-23T01:03:47.023Z,25.84
2022-12-23T01:04:16.996Z,25.84
2022-12-23T01:04:46.993Z,25.87
2022-12-23T01:05:17.110Z,25.84
2022-12-23T01:05:47.233Z,25.84
2022-12-23T01:06:17.227Z,25.82
2022-12-23T01:06:47.339Z,25.82
2022-12-23T01:07:17.334Z,25.79
2022-12-23T01:07:47.335Z,25.82
2022-12-23T01:08:17.481Z,25.82
2022-12-23T01:08:47.476Z,25.84
2022-12-23T01:09:17.471Z,25.84
2022-12-23T01:09:47.487Z,25.85
2022-12-23T01:10:17.583Z,25.82
2022-12-23T01:10:47.594Z,25.82
2022-12-23T01:11:17.574Z,25.85
2022-12-23T01:11:47.691Z,25.82
2022-12-23T01:12:17.805Z,25.84
2022-12-23T01:12:47.926Z,25.82
2022-12-23T01:13:17.947Z,25.79
2022-12-23T01:13:47.948Z,25.84
2022-12-23T01:14:17.947Z,25.84
2022-12-23T01:14:47.937Z,25.78
2022-12-23T01:15:18.062Z,25.81
2022-12-23T01:15:48.172Z,25.82
2022-12-23T01:16:18.249Z,25.84
2022-12-23T01:16:48.348Z,25.82
2022-12-23T01:17:18.305Z,25.82
2022-12-23T01:17:48.333Z,25.79
2022-12-23T01:18:18.440Z,25.84
2022-12-23T01:18:48.436Z,25.79
2022-12-23T01:19:18.573Z,25.82
2022-12-23T01:19:48.568Z,25.81
2022-12-23T01:20:18.667Z,25.81
2022-12-23T01:20:48.784Z,25.82
2022-12-23T01:21:18.788Z,25.81
2022-12-23T01:21:48.936Z,25.81
2022-12-23T01:22:19.015Z,25.81
2022-12-23T01:22:49.135Z,25.82
2022-12-23T01:23:19.227Z,25.81
2022-12-23T01:23:49.227Z,25.82
2022-12-23T01:24:19.236Z,25.82
2022-12-23T01:24:49.231Z,25.81
2022-12-23T01:25:19.362Z,25.84
2022-12-23T01:25:49.462Z,25.82
2022-12-23T01:26:19.461Z,25.78
2022-12-23T01:26:49.457Z,25.82
2022-12-23T01:27:19.575Z,25.81
2022-12-23T01:27:49.572Z,25.81
2022-12-23T01:28:19.689Z,25.79
2022-12-23T01:28:49.813Z,25.82
2022-12-23T01:29:19.807Z,25.82
2022-12-23T01:29:49.921Z,25.81
2022-12-23T01:30:19.918Z,25.82
2022-12-23T01:30:50.051Z,25.82
2022-12-23T01:31:20.094Z,25.82
2022-12-23T01:31:50.222Z,25.82
2022-12-23T01:32:20.302Z,25.79
2022-12-23T01:32:50.312Z,25.79
2022-12-23T01:33:20.458Z,25.81
2022-12-23T01:33:50.561Z,25.79
2022-12-23T01:34:20.668Z,25.81
2022-12-23T01:34:50.677Z,25.79
2022-12-23T01:35:20.663Z,25.81
2022-12-23T01:35:50.783Z,25.81
2022-12-23T01:36:20.777Z,25.81
2022-12-23T01:36:50.914Z,25.82
2022-12-23T01:37:21.022Z,25.79
2022-12-23T01:37:51.138Z,25.81
2022-12-23T01:38:21.250Z,25.81
2022-12-23T01:38:51.262Z,25.82
2022-12-23T01:39:21.363Z,25.81
2022-12-23T01:39:51.382Z,25.79
2022-12-23T01:40:21.371Z,25.81
2022-12-23T01:40:51.482Z,25.78
2022-12-23T01:41:21.591Z,25.78
2022-12-23T01:41:51.633Z,25.79
2022-12-23T01:42:21.704Z,25.79
2022-12-23T01:42:51.697Z,25.81
2022-12-23T01:43:21.727Z,25.81
2022-12-23T01:43:51.982Z,25.78
2022-12-23T01:44:21.863Z,25.78
2022-12-23T01:44:51.957Z,25.77
2022-12-23T01:45:22.027Z,25.77
2022-12-23T01:45:52.180Z,25.79
2022-12-23T01:46:22.264Z,25.78
2022-12-23T01:46:52.224Z,25.78
2022-12-23T01:47:22.309Z,25.77
2022-12-23T01:47:52.399Z,25.78
2022-12-23T01:48:22.502Z,25.79
2022-12-23T01:48:52.563Z,25.77
2022-12-23T01:49:22.642Z,25.75
2022-12-23T01:49:52.720Z,25.75
2022-12-23T01:50:22.826Z,25.77
2022-12-23T01:50:52.893Z,25.77
2022-12-23T01:51:22.965Z,25.78
2022-12-23T01:51:53.057Z,25.77
2022-12-23T01:52:23.151Z,25.77
2022-12-23T01:52:53.228Z,25.78
2022-12-23T01:53:23.312Z,25.78
2022-12-23T01:53:53.406Z,25.77
2022-12-23T01:54:23.402Z,25.77
2022-12-23T01:54:53.410Z,25.78
2022-12-23T01:55:23.411Z,25.75
2022-12-23T01:55:53.508Z,25.77
2022-12-23T01:56:23.504Z,25.75
2022-12-23T01:56:53.499Z,25.77
2022-12-23T01:57:23.637Z,25.75
2022-12-23T01:57:53.749Z,25.78
2022-12-23T01:58:23.732Z,25.75
2022-12-23T01:58:53.846Z,25.75
2022-12-23T01:59:23.838Z,25.75
2022-12-23T01:59:53.837Z,25.78
2022-12-23T02:00:23.955Z,25.75
2022-12-23T02:00:54.037Z,25.74
2022-12-23T02:01:24.076Z,25.77
2022-12-23T02:01:54.252Z,25.75
2022-12-23T02:02:24.375Z,25.74
2022-12-23T02:02:54.297Z,25.74
2022-12-23T02:03:24.342Z,25.74
2022-12-23T02:03:54.295Z,25.75
2022-12-23T02:04:24.272Z,25.75
2022-12-23T02:04:54.391Z,25.74
2022-12-23T02:05:24.387Z,25.77
2022-12-23T02:05:54.386Z,25.75
2022-12-23T02:06:24.399Z,25.74
2022-12-23T02:06:54.513Z,25.77
2022-12-23T02:07:24.499Z,25.75
2022-12-23T02:07:54.494Z,25.74
2022-12-23T02:08:24.608Z,25.77
2022-12-23T02:08:54.739Z,25.77
2022-12-23T02:09:24.741Z,25.74
2022-12-23T02:09:54.847Z,25.77
2022-12-23T02:10:24.848Z,25.75
2022-12-23T02:10:54.843Z,25.75
2022-12-23T02:11:24.954Z,25.75
2022-12-23T02:11:54.951Z,25.74
2022-12-23T02:12:25.066Z,25.72
2022-12-23T02:12:55.187Z,25.74
2022-12-23T02:13:25.306Z,25.75
2022-12-23T02:13:55.426Z,25.75
2022-12-23T02:14:25.428Z,25.75
2022-12-23T02:14:55.535Z,25.72
2022-12-23T02:15:25.525Z,25.72
2022-12-23T02:15:55.650Z,25.72
2022-12-23T02:16:25.828Z,25.75
2022-12-23T02:16:55.849Z,25.77
2022-12-23T02:17:25.838Z,25.74
2022-12-23T02:17:55.838Z,25.71
2022-12-23T02:18:25.827Z,25.72
2022-12-23T02:18:55.997Z,25.72
2022-12-23T02:19:25.969Z,25.74
2022-12-23T02:19:56.077Z,25.74
2022-12-23T02:20:26.070Z,25.74
2022-12-23T02:20:56.193Z,25.72
2022-12-23T02:21:26.318Z,25.72
2022-12-23T02:21:56.405Z,25.74
2022-12-23T02:22:26.407Z,25.71
2022-12-23T02:22:56.523Z,25.71
2022-12-23T02:23:26.518Z,25.74
2022-12-23T02:23:56.541Z,25.72
2022-12-23T02:24:26.527Z,25.72
2022-12-23T02:24:56.644Z,25.71
2022-12-23T02:25:26.651Z,25.74
2022-12-23T02:25:56.752Z,25.71
2022-12-23T02:26:26.747Z,25.71
2022-12-23T02:26:56.743Z,25.71
2022-12-23T02:27:26.878Z,25.71
2022-12-23T02:27:56.870Z,25.72
2022-12-23T02:28:26.863Z,25.70
2022-12-23T02:28:56.866Z,25.71
2022-12-23T02:29:26.866Z,25.71
2022-12-23T02:29:56.868Z,25.70
2022-12-23T02:30:26.861Z,25.72
2022-12-23T02:30:56.945Z,25.71
2022-12-23T02:31:27.028Z,25.71
2022-12-23T02:31:57.038Z,25.74
2022-12-23T02:32:27.043Z,25.71
2022-12-23T02:32:57.053Z,25.71
2022-12-23T02:33:27.171Z,25.74
2022-12-23T02:33:57.169Z,25.70
2022-12-23T02:34:27.185Z,25.71
2022-12-23T02:34:57.276Z,25.70
2022-12-23T02:35:27.292Z,25.71
2022-12-23T02:35:57.396Z,25.72
2022-12-23T02:36:27.532Z,25.70
2022-12-23T02:36:57.634Z,25.68
2022-12-23T02:37:27.635Z,25.71
2022-12-23T02:37:57.751Z,25.70
2022-12-23T02:38:27.748Z,25.70
2022-12-23T02:38:57.879Z,25.71
2022-12-23T02:39:27.863Z,25.71
2022-12-23T02:39:57.980Z,25.68
2022-12-23T02:40:27.977Z,25.71
2022-12-23T02:40:58.097Z,25.68
2022-12-23T02:41:28.213Z,25.71
2022-12-23T02:41:58.214Z,25.72
2022-12-23T02:42:28.200Z,25.70
2022-12-23T02:42:58.331Z,25.71
2022-12-23T02:43:28.311Z,25.70
2022-12-23T02:43:58.433Z,25.67
2022-12-23T02:44:28.556Z,25.70
2022-12-23T02:44:58.674Z,25.70
2022-12-23T02:45:28.663Z,25.67
2022-12-23T02:45:58.804Z,25.68
2022-12-23T02:46:28.852Z,25.71
2022-12-23T02:46:58.894Z,25.70
2022-12-23T02:47:28.888Z,25.70
2022-12-23T02:47:59.001Z,25.70
2022-12-23T02:48:29.046Z,25.68
2022-12-23T02:48:59.104Z,25.68
2022-12-23T02:49:29.088Z,25.70
2022-12-23T02:49:59.120Z,25.67
2022-12-23T02:50:29.086Z,25.70
2022-12-23T02:50:59.078Z,25.70
2022-12-23T02:51:29.087Z,25.70
2022-12-23T02:51:59.069Z,25.70
2022-12-23T02:52:29.186Z,25.70
2022-12-23T02:52:59.184Z,25.67
2022-12-23T02:53:29.308Z,25.68
2022-12-23T02:53:59.331Z,25.68
2022-12-23T02:54:29.371Z,25.65
2022-12-23T02:54:59.404Z,25.68
2022-12-23T02:55:29.434Z,25.68
2022-12-23T02:55:59.474Z,25.68
2022-12-23T02:56:29.499Z,25.67
2022-12-23T02:56:59.530Z,25.67
2022-12-23T02:57:29.573Z,25.68
2022-12-23T02:57:59.601Z,25.68
2022-12-23T02:58:29.628Z,25.70
2022-12-23T02:58:59.660Z,25.68
2022-12-23T02:59:29.705Z,25.68
2022-12-23T02:59:59.733Z,25.68
2022-12-23T03:00:29.776Z,25.68
2022-12-23T03:00:59.812Z,25.67
2022-12-23T03:01:29.987Z,25.68
2022-12-23T03:02:00.167Z,25.67
2022-12-23T03:02:30.341Z,25.67
2022-12-23T03:03:00.344Z,25.65
2022-12-23T03:03:30.317Z,25.67
2022-12-23T03:04:00.436Z,25.68
2022-12-23T03:04:30.273Z,25.67
2022-12-23T03:05:01.119Z,25.67
2022-12-23T03:05:30.343Z,25.67
2022-12-23T03:06:00.353Z,25.65
2022-12-23T03:06:30.381Z,25.67
2022-12-23T03:07:06.966Z,25.67
2022-12-23T03:07:30.462Z,25.64
2022-12-23T03:08:00.492Z,25.65
2022-12-23T03:08:30.533Z,25.68
2022-12-23T03:09:39.533Z,25.61
2022-12-23T03:10:09.622Z,25.62
2022-12-23T03:10:39.702Z,25.62
2022-12-23T03:11:09.791Z,25.64
2022-12-23T03:11:39.870Z,25.62
2022-12-23T03:12:09.960Z,25.61
2022-12-23T03:12:40.040Z,25.61
2022-12-23T03:13:10.129Z,25.64
2022-12-23T03:13:40.197Z,25.64
2022-12-23T03:14:10.319Z,25.61
2022-12-23T03:14:40.296Z,25.61
2022-12-23T03:15:10.379Z,25.62
2022-12-23T03:15:40.560Z,25.61
2022-12-23T03:16:10.567Z,25.62
2022-12-23T03:16:40.538Z,25.62
2022-12-23T03:17:10.622Z,25.62
2022-12-23T03:17:40.701Z,25.64
2022-12-23T03:18:10.785Z,25.60
2022-12-23T03:18:40.877Z,25.61
2022-12-23T03:19:10.950Z,25.64
2022-12-23T03:19:40.980Z,25.67
2022-12-23T03:20:10.975Z,25.64
2022-12-23T03:20:41.112Z,25.62
2022-12-23T03:21:11.095Z,25.61
2022-12-23T03:21:41.077Z,25.65
2022-12-23T03:22:11.220Z,25.65
2022-12-23T03:22:41.194Z,25.65
2022-12-23T03:23:11.311Z,25.64
2022-12-23T03:23:41.304Z,25.64
2022-12-23T03:24:11.432Z,25.62
2022-12-23T03:24:41.543Z,25.64
2022-12-23T03:25:11.546Z,25.65
2022-12-23T03:25:41.557Z,25.64
2022-12-23T03:26:11.689Z,25.62
2022-12-23T03:26:41.678Z,25.64
2022-12-23T03:27:11.689Z,25.62
2022-12-23T03:27:41.678Z,25.64
2022-12-23T03:28:11.681Z,25.62
2022-12-23T03:28:41.787Z,25.62
2022-12-23T03:29:11.787Z,25.65
2022-12-23T03:29:41.782Z,25.65
2022-12-23T03:30:11.776Z,25.65
2022-12-23T03:30:41.838Z,25.62
2022-12-23T03:31:11.948Z,25.64
2022-12-23T03:31:42.001Z,25.65
2022-12-23T03:32:11.956Z,25.62
2022-12-23T03:32:41.941Z,25.64
2022-12-23T03:33:11.938Z,25.62
2022-12-23T03:33:42.057Z,25.64
2022-12-23T03:34:12.174Z,25.64
2022-12-23T03:34:42.173Z,25.64
2022-12-23T03:35:12.296Z,25.65
2022-12-23T03:35:42.284Z,25.62
2022-12-23T03:36:12.303Z,25.64
2022-12-23T03:36:42.397Z,25.65
2022-12-23T03:37:12.514Z,25.60
2022-12-23T03:37:42.509Z,25.62
2022-12-23T03:38:12.505Z,25.61
2022-12-23T03:38:42.507Z,25.60
2022-12-23T03:39:12.515Z,25.61
2022-12-23T03:39:42.507Z,25.62
2022-12-23T03:40:12.515Z,25.62
2022-12-23T03:40:42.508Z,25.61
2022-12-23T03:41:12.505Z,25.60
2022-12-23T03:41:42.505Z,25.62
2022-12-23T03:42:12.618Z,25.61
2022-12-23T03:42:42.615Z,25.64
2022-12-23T03:43:12.611Z,25.61
2022-12-23T03:43:48.509Z,25.62
2022-12-23T03:44:12.751Z,25.62
2022-12-23T03:45:03.745Z,25.62
2022-12-23T03:45:38.013Z,25.61
2022-12-23T03:45:42.778Z,25.62
2022-12-23T03:46:12.948Z,25.60
2022-12-23T03:46:43.045Z,25.61
2022-12-23T03:47:12.955Z,25.61
2022-12-23T03:47:42.951Z,25.62
2022-12-23T03:48:12.949Z,25.61
2022-12-23T03:48:42.953Z,25.61
2022-12-23T03:49:13.064Z,25.61
2022-12-23T03:49:43.080Z,25.60
2022-12-23T03:50:13.096Z,25.61
2022-12-23T03:50:43.081Z,25.61
2022-12-23T03:51:13.206Z,25.60
2022-12-23T03:51:43.230Z,25.61
2022-12-23T03:52:20.535Z,25.61
2022-12-23T03:52:43.314Z,25.61
2022-12-23T03:53:13.346Z,25.60
2022-12-23T03:53:43.334Z,25.60
2022-12-23T03:54:13.350Z,25.60
2022-12-23T03:54:43.356Z,25.60
2022-12-23T03:55:13.356Z,25.60
2022-12-23T03:55:43.363Z,25.58
2022-12-23T03:56:13.344Z,25.60
2022-12-23T03:56:43.352Z,25.60
2022-12-23T03:57:13.337Z,25.58
2022-12-23T03:57:43.336Z,25.58
2022-12-23T03:58:13.330Z,25.61
2022-12-23T03:58:43.365Z,25.58
2022-12-23T03:59:13.369Z,25.58
2022-12-23T03:59:43.474Z,25.58
2022-12-23T04:00:13.471Z,25.58
2022-12-23T04:00:43.592Z,25.58
2022-12-23T04:01:13.732Z,25.61
2022-12-23T04:01:43.770Z,25.58
2022-12-23T04:02:13.846Z,25.57
2022-12-23T04:02:43.897Z,25.58
2022-12-23T04:03:13.778Z,25.58
2022-12-23T04:03:43.847Z,25.60
2022-12-23T04:04:13.949Z,25.57
2022-12-23T04:04:43.863Z,25.57
2022-12-23T04:05:13.870Z,25.58
2022-12-23T04:05:43.853Z,25.60
2022-12-23T04:06:13.970Z,25.60
2022-12-23T04:06:44.091Z,25.60
2022-12-23T04:07:14.111Z,25.60
2022-12-23T04:07:44.080Z,25.60
2022-12-23T04:08:14.079Z,25.60
2022-12-23T04:08:44.197Z,25.58
2022-12-23T04:09:19.857Z,25.60
2022-12-23T04:09:44.421Z,25.58
2022-12-23T04:10:14.508Z,25.60
2022-12-23T04:10:44.586Z,25.58
2022-12-23T04:11:14.666Z,25.57
2022-12-23T04:11:44.756Z,25.58
2022-12-23T04:12:14.833Z,25.58
2022-12-23T04:12:44.921Z,25.58
2022-12-23T04:13:15.002Z,25.58
2022-12-23T04:13:45.082Z,25.57
2022-12-23T04:14:15.161Z,25.57
2022-12-23T04:14:45.237Z,25.60
2022-12-23T04:15:15.328Z,25.57
2022-12-23T04:15:45.456Z,25.57
2022-12-23T04:16:15.477Z,25.56
2022-12-23T04:16:45.416Z,25.58
2022-12-23T04:17:15.514Z,25.56
2022-12-23T04:17:45.582Z,25.57
2022-12-23T04:18:15.676Z,25.58
2022-12-23T04:18:45.760Z,25.56
2022-12-23T04:19:15.857Z,25.54
2022-12-23T04:19:45.844Z,25.56
2022-12-23T04:20:15.847Z,25.56
2022-12-23T04:20:45.839Z,25.56
2022-12-23T04:21:15.837Z,25.57
2022-12-23T04:21:45.954Z,25.57
2022-12-23T04:22:16.093Z,25.56
2022-12-23T04:22:46.064Z,25.57
2022-12-23T04:23:16.185Z,25.58
2022-12-23T04:23:46.300Z,25.57
2022-12-23T04:24:16.420Z,25.56
2022-12-23T04:24:46.413Z,25.58
2022-12-23T04:25:16.875Z,25.58
2022-12-23T04:25:46.615Z,25.57
2022-12-23T04:26:16.613Z,25.57
2022-12-23T04:26:46.728Z,25.54
2022-12-23T04:27:16.740Z,25.54
2022-12-23T04:27:46.743Z,25.56
2022-12-23T04:28:16.742Z,25.57
2022-12-23T04:28:46.748Z,25.54
2022-12-23T04:29:16.741Z,25.57
2022-12-23T04:29:46.750Z,25.57
2022-12-23T04:30:16.733Z,25.56
2022-12-23T04:30:46.728Z,25.53
2022-12-23T04:31:16.916Z,25.53
2022-12-23T04:31:47.021Z,25.56
2022-12-23T04:32:17.035Z,25.53
2022-12-23T04:32:47.039Z,25.57
2022-12-23T04:33:17.043Z,25.54
2022-12-23T04:33:47.051Z,25.57
2022-12-23T04:34:17.046Z,25.57
2022-12-23T04:34:47.041Z,25.53
2022-12-23T04:35:17.158Z,25.56
2022-12-23T04:35:47.273Z,25.57
2022-12-23T04:36:17.391Z,25.56
2022-12-23T04:36:47.512Z,25.56
2022-12-23T04:37:17.509Z,25.57
2022-12-23T04:37:47.650Z,25.54
2022-12-23T04:38:17.751Z,25.54
2022-12-23T04:38:47.739Z,25.53
2022-12-23T04:39:17.743Z,25.56
2022-12-23T04:39:47.739Z,25.57
2022-12-23T04:40:17.732Z,25.54
2022-12-23T04:40:47.842Z,25.56
2022-12-23T04:41:17.963Z,25.56
2022-12-23T04:41:47.970Z,25.53
2022-12-23T04:42:18.072Z,25.54
2022-12-23T04:42:48.069Z,25.53
2022-12-23T04:43:18.067Z,25.54
2022-12-23T04:43:53.046Z,25.53
2022-12-23T04:44:18.088Z,25.54
2022-12-23T04:44:48.075Z,25.56
2022-12-23T04:45:18.078Z,25.56
2022-12-23T04:45:48.069Z,25.54
2022-12-23T04:46:18.216Z,25.56
2022-12-23T04:46:48.331Z,25.53
2022-12-23T04:47:18.316Z,25.54
2022-12-23T04:47:48.437Z,25.53
2022-12-23T04:48:18.433Z,25.51
2022-12-23T04:48:48.552Z,25.54
2022-12-23T04:49:18.552Z,25.54
2022-12-23T04:49:48.538Z,25.53
2022-12-23T04:50:18.665Z,25.51
2022-12-23T04:50:48.775Z,25.50
2022-12-23T04:51:18.778Z,25.53
2022-12-23T04:51:48.907Z,25.51
2022-12-23T04:52:19.016Z,25.51
2022-12-23T04:52:49.158Z,25.51
2022-12-23T04:53:19.274Z,25.56
2022-12-23T04:53:49.251Z,25.54
2022-12-23T04:54:19.253Z,25.56
2022-12-23T04:54:49.244Z,25.53
2022-12-23T04:55:19.374Z,25.53
2022-12-23T04:55:49.481Z,25.53
2022-12-23T04:56:19.512Z,25.53
2022-12-23T04:56:49.485Z,25.56
2022-12-23T04:57:19.602Z,25.50
2022-12-23T04:57:49.717Z,25.53
2022-12-23T04:58:19.843Z,25.53
2022-12-23T04:58:49.958Z,25.53
2022-12-23T04:59:20.074Z,25.53
2022-12-23T04:59:50.068Z,25.54
2022-12-23T05:00:20.185Z,25.53
2022-12-23T05:00:50.255Z,25.53
2022-12-23T05:01:20.345Z,25.50
2022-12-23T05:01:50.636Z,25.51
2022-12-23T05:02:20.600Z,25.50
2022-12-23T05:02:50.632Z,25.51
2022-12-23T05:03:20.661Z,25.51
2022-12-23T05:03:50.572Z,25.53
2022-12-23T05:04:20.603Z,25.54
2022-12-23T05:04:50.620Z,25.50
2022-12-23T05:05:20.622Z,25.51
2022-12-23T05:05:50.620Z,25.53
2022-12-23T05:06:20.737Z,25.51
2022-12-23T05:06:50.734Z,25.51
2022-12-23T05:07:20.732Z,25.51
2022-12-23T05:07:50.846Z,25.50
2022-12-23T05:08:20.852Z,25.50
2022-12-23T05:08:50.886Z,25.50
2022-12-23T05:09:20.841Z,25.50
2022-12-23T05:09:50.952Z,25.51
2022-12-23T05:10:21.010Z,25.50
2022-12-23T05:10:51.087Z,25.53
2022-12-23T05:11:21.164Z,25.51
2022-12-23T05:11:51.247Z,25.53
2022-12-23T05:12:21.352Z,25.48
2022-12-23T05:12:51.421Z,25.48
2022-12-23T05:13:21.508Z,25.53
2022-12-23T05:13:51.592Z,25.51
2022-12-23T05:14:21.675Z,25.48
2022-12-23T05:14:51.752Z,25.51
2022-12-23T05:15:21.853Z,25.50
2022-12-23T05:15:52.002Z,25.50
2022-12-23T05:16:22.042Z,25.48
2022-12-23T05:16:52.173Z,25.48
2022-12-23T05:17:22.168Z,25.47
2022-12-23T05:17:52.239Z,25.50
2022-12-23T05:18:22.335Z,25.47
2022-12-23T05:18:52.406Z,25.50
2022-12-23T05:19:22.506Z,25.47
2022-12-23T05:19:52.624Z,25.47
2022-12-23T05:20:22.621Z,25.47
2022-12-23T05:20:52.663Z,25.48
2022-12-23T05:21:22.635Z,25.47
2022-12-23T05:21:52.753Z,25.48
2022-12-23T05:22:22.770Z,25.47
2022-12-23T05:22:52.760Z,25.47
2022-12-23T05:23:22.754Z,25.50
2022-12-23T05:23:52.908Z,25.47
2022-12-23T05:24:22.901Z,25.48
2022-12-23T05:24:53.013Z,25.48
2022-12-23T05:25:23.035Z,25.45
2022-12-23T05:25:53.151Z,25.47
2022-12-23T05:26:23.269Z,25.47
2022-12-23T05:26:59.766Z,25.45
2022-12-23T05:27:23.425Z,25.47
2022-12-23T05:27:53.528Z,25.48
2022-12-23T05:28:23.545Z,25.45
2022-12-23T05:28:53.520Z,25.48
2022-12-23T05:29:23.511Z,25.45
2022-12-23T05:29:53.658Z,25.45
2022-12-23T05:30:23.748Z,25.45
2022-12-23T05:30:53.757Z,25.45
2022-12-23T05:31:23.826Z,25.47
2022-12-23T05:31:54.020Z,25.45
2022-12-23T05:32:23.876Z,25.48
2022-12-23T05:32:53.994Z,25.48
2022-12-23T05:33:24.201Z,25.44
2022-12-23T05:33:54.268Z,25.44
2022-12-23T05:34:24.252Z,25.45
2022-12-23T05:34:54.381Z,25.45
2022-12-23T05:35:24.381Z,25.45
2022-12-23T05:35:54.371Z,25.45
2022-12-23T05:36:24.485Z,25.45
2022-12-23T05:36:54.611Z,25.47
2022-12-23T05:37:24.601Z,25.45
2022-12-23T05:37:54.732Z,25.44
2022-12-23T05:38:24.717Z,25.48
2022-12-23T05:38:54.719Z,25.44
2022-12-23T05:39:24.798Z,25.44
2022-12-23T05:39:54.784Z,25.47
2022-12-23T05:40:27.666Z,25.45
2022-12-23T05:40:54.821Z,25.47
2022-12-23T05:41:24.800Z,25.45
2022-12-23T05:41:54.793Z,25.48
2022-12-23T05:42:24.913Z,25.47
2022-12-23T05:42:54.911Z,25.45
2022-12-23T05:43:24.909Z,25.45
2022-12-23T05:43:55.041Z,25.45
2022-12-23T05:44:25.040Z,25.45
2022-12-23T05:44:55.025Z,25.44
2022-12-23T05:45:25.233Z,25.47
2022-12-23T05:45:55.265Z,25.47
2022-12-23T05:46:27.043Z,25.45
2022-12-23T05:46:55.377Z,25.47
2022-12-23T05:47:25.362Z,25.50
2022-12-23T05:47:55.473Z,25.45
2022-12-23T05:48:25.598Z,25.45
2022-12-23T05:48:55.730Z,25.45
2022-12-23T05:49:25.715Z,25.44
2022-12-23T05:49:55.837Z,25.45
2022-12-23T05:50:25.946Z,25.45
2022-12-23T05:50:55.961Z,25.47
2022-12-23T05:51:25.961Z,25.45
2022-12-23T05:51:56.076Z,25.45
2022-12-23T05:52:26.064Z,25.45
2022-12-23T05:52:56.074Z,25.45
2022-12-23T05:53:26.059Z,25.44
2022-12-23T05:53:56.054Z,25.48
2022-12-23T05:54:26.084Z,25.43
2022-12-23T05:54:56.097Z,25.47
2022-12-23T05:55:26.059Z,25.43
2022-12-23T05:55:56.096Z,25.45
2022-12-23T05:56:26.095Z,25.43
2022-12-23T05:56:56.216Z,25.43
2022-12-23T05:57:26.203Z,25.44
2022-12-23T05:57:56.225Z,25.44
2022-12-23T05:58:26.333Z,25.43
2022-12-23T05:58:56.462Z,25.44
2022-12-23T05:59:30.885Z,25.44
2022-12-23T05:59:56.615Z,25.44
2022-12-23T06:00:26.610Z,25.45
2022-12-23T06:00:56.613Z,25.41
2022-12-23T06:01:26.774Z,25.44
2022-12-23T06:01:56.936Z,25.44
2022-12-23T06:02:27.075Z,25.44
2022-12-23T06:02:57.316Z,25.44
2022-12-23T06:03:27.352Z,25.43
2022-12-23T06:03:57.295Z,25.43
2022-12-23T06:04:27.306Z,25.41
2022-12-23T06:04:57.204Z,25.43
2022-12-23T06:05:27.202Z,25.43
2022-12-23T06:05:57.194Z,25.43
2022-12-23T06:06:27.328Z,25.43
2022-12-23T06:06:57.436Z,25.43
2022-12-23T06:07:27.556Z,25.43
2022-12-23T06:07:57.673Z,25.45
2022-12-23T06:08:27.673Z,25.44
2022-12-23T06:08:59.979Z,25.43
2022-12-23T06:09:27.776Z,25.41
2022-12-23T06:09:57.862Z,25.40
2022-12-23T06:10:27.928Z,25.44
2022-12-23T06:10:58.056Z,25.44
2022-12-23T06:11:28.067Z,25.43
2022-12-23T06:11:58.040Z,25.43
2022-12-23T06:12:28.119Z,25.41
2022-12-23T06:12:58.209Z,25.41
2022-12-23T06:13:28.294Z,25.43
2022-12-23T06:13:58.373Z,25.41
2022-12-23T06:14:29.396Z,25.41
2022-12-23T06:14:58.453Z,25.44
2022-12-23T06:15:28.541Z,25.40
2022-12-23T06:15:58.660Z,25.43
2022-12-23T06:16:28.774Z,25.41
2022-12-23T06:16:58.920Z,25.43
2022-12-23T06:17:28.923Z,25.40
2022-12-23T06:17:59.010Z,25.43
2022-12-23T06:18:29.087Z,25.40
2022-12-23T06:18:59.171Z,25.40
2022-12-23T06:19:29.291Z,25.41
2022-12-23T06:19:59.314Z,25.41
2022-12-23T06:20:29.322Z,25.40
2022-12-23T06:20:59.310Z,25.41
2022-12-23T06:21:29.585Z,25.41
2022-12-23T06:21:59.520Z,25.38
2022-12-23T06:22:29.514Z,25.41
2022-12-23T06:22:59.514Z,25.41
2022-12-23T06:23:29.617Z,25.41
2022-12-23T06:23:59.620Z,25.41
2022-12-23T06:24:29.725Z,25.38
2022-12-23T06:24:59.716Z,25.41
2022-12-23T06:25:29.685Z,25.40
2022-12-23T06:25:59.684Z,25.41
2022-12-23T06:26:29.808Z,25.41
2022-12-23T06:26:59.800Z,25.38
2022-12-23T06:27:29.915Z,25.41